Time;durP1;ratioP1;P1;durP2;ratioP2;P2;SDS_P1;SDS_P2;PMS_P1;PMS_P2;Temp;Humidity;BMP_temperature;BMP_pressure;BME280_temperature;BME280_humidity;BME280_pressure;Samples;Min_cycle;Max_cycle;Signal;HPM_P1;HPM_P2
2020/12/27 00:00:18;;;;;;;100.20;37.47;;;-1.70;99.90;;;;;;4963440;28;20201;-92
2020/12/27 00:02:44;;;;;;;64.37;27.67;;;;;;;;;;4962576;28;20244;-94
2020/12/27 00:05:13;;;;;;;63.93;26.27;;;;;;;;;;4980121;28;20206;-93
2020/12/27 00:07:39;;;;;;;63.63;26.17;;;;;;;;;;4948504;28;20190;-94
2020/12/27 00:10:06;;;;;;;63.90;28.03;;;-1.70;99.90;;;;;;4964007;28;20183;-94
2020/12/27 00:12:34;;;;;;;43.57;20.70;;;-1.80;99.90;;;;;;4948863;28;20186;-94
2020/12/27 00:15:00;;;;;;;43.43;19.67;;;;;;;;;;4958724;28;20178;-93
2020/12/27 00:17:26;;;;;;;31.87;16.30;;;;;;;;;;4943310;28;20582;-95
2020/12/27 00:19:52;;;;;;;35.47;17.73;;;;;;;;;;4976086;28;20703;-94
2020/12/27 00:22:20;;;;;;;72.23;29.53;;;-1.70;99.90;;;;;;4942754;28;20193;-94
2020/12/27 00:24:46;;;;;;;109.93;43.77;;;;;;;;;;4959114;28;20242;-94
2020/12/27 00:27:13;;;;;;;37.47;18.33;;;;;;;;;;4942795;28;20187;-94
2020/12/27 00:29:40;;;;;;;42.17;20.07;;;;;;;;;;4943172;28;20706;-94
2020/12/27 00:32:06;;;;;;;39.57;20.30;;;;;;;;;;4958519;28;20196;-94
2020/12/27 00:34:31;;;;;;;40.67;19.23;;;-1.80;99.90;;;;;;4932352;28;672734;-94
2020/12/27 00:36:58;;;;;;;47.00;21.43;;;;;;;;;;4940256;29;20191;-94
2020/12/27 00:39:24;;;;;;;44.67;20.10;;;-1.80;99.90;;;;;;4955813;29;20183;-94
2020/12/27 00:41:50;;;;;;;39.10;19.60;;;;;;;;;;4956272;29;20190;-91
2020/12/27 00:44:17;;;;;;;41.00;19.57;;;-1.80;99.90;;;;;;4956818;29;20194;-93
2020/12/27 00:46:48;;;;;;;44.93;20.87;;;-1.80;99.90;;;;;;4939911;29;20217;-93
2020/12/27 00:49:14;;;;;;;45.90;22.13;;;;;;;;;;4955486;29;20238;-93
2020/12/27 00:51:40;;;;;;;49.07;21.53;;;-1.80;99.90;;;;;;4959548;29;20194;-91
2020/12/27 00:54:06;;;;;;;47.57;21.27;;;;;;;;;;4960441;29;20186;-91
2020/12/27 00:56:32;;;;;;;54.33;25.20;;;;;;;;;;4959968;29;20276;-91
2020/12/27 00:58:58;;;;;;;46.83;21.00;;;;;;;;;;4939799;29;20278;-93
2020/12/27 01:01:24;;;;;;;42.33;19.60;;;;;;;;;;4955004;28;20813;-92
2020/12/27 01:03:50;;;;;;;40.17;18.63;;;;;;;;;;4955559;29;20218;-93
2020/12/27 01:06:22;;;;;;;54.80;23.73;;;-1.80;99.90;;;;;;4939135;29;20224;-93
2020/12/27 01:08:47;;;;;;;52.30;22.30;;;-1.10;99.90;;;;;;4938939;29;20209;-93
2020/12/27 01:11:13;;;;;;;48.80;20.73;;;;;;;;;;4954959;29;20262;-92
2020/12/27 01:13:40;;;;;;;41.53;19.03;;;;;;;;;;4956043;29;20179;-92
2020/12/27 01:16:10;;;;;;;60.60;25.20;;;-1.90;99.90;;;;;;4954999;29;20180;-90
2020/12/27 01:18:36;;;;;;;51.00;22.33;;;-0.10;99.90;;;;;;4954979;29;20181;-91
2020/12/27 01:21:02;;;;;;;92.20;34.47;;;-1.70;99.90;;;;;;4939047;29;20242;-91
2020/12/27 01:23:27;;;;;;;59.73;26.50;;;-1.90;99.90;;;;;;4938853;29;20202;-92
2020/12/27 01:25:53;;;;;;;102.43;35.93;;;0.20;99.90;;;;;;4955230;29;20214;-93
2020/12/27 01:28:19;;;;;;;61.73;26.57;;;;;;;;;;4954703;29;20247;-92
2020/12/27 01:30:45;;;;;;;66.57;27.23;;;-1.90;99.90;;;;;;4939174;29;20656;-92
2020/12/27 01:33:10;;;;;;;77.70;30.47;;;0.60;99.90;;;;;;4938909;29;20219;-93
2020/12/27 01:35:36;;;;;;;68.83;28.20;;;0.10;99.90;;;;;;4970566;28;20758;-93
2020/12/27 01:38:02;;;;;;;63.63;25.70;;;-1.90;99.90;;;;;;4943212;28;20257;-93
2020/12/27 01:40:28;;;;;;;94.00;33.03;;;;;;;;;;4976357;28;20170;-94
2020/12/27 01:42:57;;;;;;;112.67;40.37;;;-2.00;99.90;;;;;;4958767;28;20210;-95
2020/12/27 01:45:23;;;;;;;74.30;28.90;;;;;;;;;;4958591;28;20709;-94
2020/12/27 01:47:51;;;;;;;64.73;26.00;;;-2.00;99.90;;;;;;4942469;28;20187;-93
2020/12/27 01:50:17;;;;;;;56.97;24.23;;;;;;;;;;4957843;28;20187;-93
2020/12/27 01:52:43;;;;;;;64.67;25.80;;;;;;;;;;4958577;28;20215;-93
2020/12/27 01:55:11;;;;;;;61.10;27.30;;;-2.10;99.90;;;;;;4958184;28;20191;-93
2020/12/27 01:57:52;;;;;;;58.33;27.03;;;1.00;99.90;;;;;;4975445;28;20186;-93
2020/12/27 02:00:18;;;;;;;62.57;26.90;;;;;;;;;;4957821;28;20281;-92
2020/12/27 02:02:44;;;;;;;74.37;30.30;;;;;;;;;;4957491;28;20592;-92
2020/12/27 02:05:12;;;;;;;50.67;21.90;;;-2.20;99.90;;;;;;4962533;28;20185;-93
2020/12/27 02:07:40;;;;;;;63.40;26.40;;;;;;;;;;4958578;28;20178;-94
2020/12/27 02:10:06;;;;;;;62.83;26.67;;;;;;;;;;4959837;28;20193;-93
2020/12/27 02:12:32;;;;;;;59.97;25.13;;;-2.20;99.90;;;;;;4966176;28;20217;-90
2020/12/27 02:14:57;;;;;;;53.27;24.07;;;-2.20;99.90;;;;;;4948793;28;20707;-90
2020/12/27 02:17:23;;;;;;;59.97;26.00;;;-2.20;99.90;;;;;;4981596;28;20177;-91
2020/12/27 02:19:49;;;;;;;62.43;25.40;;;;;;;;;;4966152;28;20168;-92
2020/12/27 02:22:14;;;;;;;56.87;24.90;;;-2.20;99.90;;;;;;4966448;28;20198;-92
2020/12/27 02:24:41;;;;;;;53.50;23.37;;;;;;;;;;4981904;28;20246;-95
2020/12/27 02:27:08;;;;;;;60.67;23.90;;;;;;;;;;4996919;28;20192;-93
2020/12/27 02:29:35;;;;;;;55.83;23.40;;;-2.30;99.90;;;;;;4975660;28;20210;-93
2020/12/27 02:32:01;;;;;;;64.10;25.40;;;-2.70;99.90;;;;;;4964063;28;20177;-92
2020/12/27 02:34:27;;;;;;;60.90;24.83;;;-0.90;99.90;;;;;;4965459;28;20241;-92
2020/12/27 02:36:53;;;;;;;73.77;27.33;;;-2.40;99.90;;;;;;4982319;28;20163;-91
2020/12/27 02:39:20;;;;;;;70.03;29.73;;;-2.40;99.90;;;;;;4998096;28;20174;-91
2020/12/27 02:41:50;;;;;;;67.70;29.27;;;0.40;99.90;;;;;;4976418;28;20179;-92
2020/12/27 02:44:16;;;;;;;73.50;29.23;;;;;;;;;;4974896;28;20178;-93
2020/12/27 02:46:42;;;;;;;70.33;29.93;;;;;;;;;;4957241;28;20183;-92
2020/12/27 02:49:08;;;;;;;76.47;31.30;;;;;;;;;;4957889;28;20240;-92
2020/12/27 02:51:34;;;;;;;70.70;30.57;;;;;;;;;;4941868;28;20221;-94
2020/12/27 02:54:00;;;;;;;61.03;27.17;;;;;;;;;;4957483;28;20297;-93
2020/12/27 02:56:28;;;;;;;50.90;23.20;;;-2.50;99.90;;;;;;4941037;28;20187;-94
2020/12/27 02:58:58;;;;;;;42.17;18.07;;;-2.50;99.90;;;;;;4957240;28;20183;-93
2020/12/27 03:01:25;;;;;;;44.10;19.37;;;-2.50;99.90;;;;;;4974340;28;20214;-93
2020/12/27 03:03:50;;;;;;;40.93;17.50;;;-1.60;99.90;;;;;;4957446;28;20247;-93
2020/12/27 03:06:19;;;;;;;33.37;16.40;;;-2.50;99.90;;;;;;4942095;28;20179;-95
2020/12/27 03:08:54;;;;;;;37.77;16.80;;;-2.50;99.90;;;;;;4943521;28;20210;-95
2020/12/27 03:11:20;;;;;;;32.53;14.90;;;;;;;;;;4957803;28;20186;-93
2020/12/27 03:13:45;;;;;;;38.10;16.57;;;-2.50;99.90;;;;;;4956996;28;20180;-92
2020/12/27 03:16:11;;;;;;;51.83;22.17;;;-0.10;99.90;;;;;;4956942;28;20690;-93
2020/12/27 03:18:37;;;;;;;46.33;20.77;;;-1.90;99.90;;;;;;4956740;28;20650;-93
2020/12/27 03:21:03;;;;;;;44.10;20.50;;;-1.40;99.90;;;;;;4957244;28;20210;-93
2020/12/27 03:23:28;;;;;;;56.87;22.63;;;-2.50;99.90;;;;;;4956717;28;20281;-92
2020/12/27 03:25:54;;;;;;;42.87;20.93;;;;;;;;;;4960309;28;20271;-93
2020/12/27 03:28:20;;;;;;;45.67;18.47;;;-2.60;99.90;;;;;;4960960;28;20355;-93
2020/12/27 03:30:46;;;;;;;46.13;20.77;;;0.30;99.90;;;;;;4960256;28;20682;-94
2020/12/27 03:33:12;;;;;;;44.90;20.07;;;0.00;99.90;;;;;;4944540;28;20186;-94
2020/12/27 03:35:37;;;;;;;54.40;23.97;;;-2.00;99.90;;;;;;4944139;28;20282;-95
2020/12/27 03:38:04;;;;;;;59.07;24.93;;;;;;;;;;4960973;28;20218;-92
2020/12/27 03:40:30;;;;;;;38.67;18.33;;;;;;;;;;4960012;28;20194;-93
2020/12/27 03:42:56;;;;;;;39.10;17.37;;;;;;;;;;4960148;28;20256;-92
2020/12/27 03:45:21;;;;;;;37.17;17.20;;;-2.20;99.90;;;;;;4960251;28;20184;-94
2020/12/27 03:47:47;;;;;;;42.93;20.43;;;0.90;99.90;;;;;;4946048;28;20187;-94
2020/12/27 03:50:13;;;;;;;46.10;19.67;;;;;;;;;;4945835;28;20191;-94
2020/12/27 03:52:39;;;;;;;40.70;18.70;;;-2.10;99.90;;;;;;4962849;28;20183;-94
2020/12/27 03:55:04;;;;;;;44.07;21.60;;;1.30;99.90;;;;;;4946354;28;20184;-94
2020/12/27 03:57:30;;;;;;;40.40;18.43;;;;;;;;;;4962358;28;20192;-94
2020/12/27 03:59:56;;;;;;;44.30;19.57;;;;;;;;;;4946058;28;20610;-92
2020/12/27 04:02:22;;;;;;;38.07;18.03;;;-2.00;99.90;;;;;;4960245;28;20185;-92
2020/12/27 04:04:48;;;;;;;41.80;18.23;;;;;;;;;;4945521;28;20190;-93
2020/12/27 04:07:14;;;;;;;33.67;17.13;;;;;;;;;;4946160;28;20229;-95
2020/12/27 04:09:40;;;;;;;42.93;18.10;;;;;;;;;;4946054;28;20221;-94
2020/12/27 04:12:06;;;;;;;36.17;17.33;;;;;;;;;;4960897;28;20183;-95
2020/12/27 04:14:34;;;;;;;46.10;20.60;;;;;;;;;;4960894;28;20856;-95
2020/12/27 04:17:00;;;;;;;45.87;19.97;;;;;;;;;;4960125;28;20182;-95
2020/12/27 04:19:26;;;;;;;42.93;18.93;;;;;;;;;;4978472;28;20693;-92
2020/12/27 04:21:52;;;;;;;40.83;19.27;;;;;;;;;;4959761;28;20208;-94
2020/12/27 04:24:18;;;;;;;55.80;24.07;;;;;;;;;;4965963;28;20185;-94
2020/12/27 04:26:47;;;;;;;60.97;25.37;;;-1.90;99.90;;;;;;4964564;28;20189;-94
2020/12/27 04:29:13;;;;;;;53.53;22.40;;;;;;;;;;4960031;28;20216;-94
2020/12/27 04:31:39;;;;;;;41.67;19.77;;;;;;;;;;4960518;28;20667;-94
2020/12/27 04:34:05;;;;;;;43.03;18.53;;;;;;;;;;4945851;28;20198;-93
2020/12/27 04:36:31;;;;;;;44.37;20.23;;;;;;;;;;4960440;28;20189;-93
2020/12/27 04:38:58;;;;;;;48.20;19.30;;;;;;;;;;4962413;28;20201;-96
2020/12/27 04:41:24;;;;;;;43.07;21.00;;;;;;;;;;4978314;28;20183;-94
2020/12/27 04:43:50;;;;;;;47.17;21.33;;;;;;;;;;4943712;28;20186;-95
2020/12/27 04:46:16;;;;;;;44.23;19.87;;;-2.10;99.90;;;;;;4978127;28;20186;-95
2020/12/27 04:48:44;;;;;;;41.63;18.53;;;-2.10;99.90;;;;;;4960532;28;20218;-94
2020/12/27 04:51:11;;;;;;;37.33;17.43;;;-2.20;99.90;;;;;;4948512;28;20192;-95
2020/12/27 04:53:38;;;;;;;42.13;18.70;;;-2.20;99.90;;;;;;4979921;28;20210;-94
2020/12/27 04:56:06;;;;;;;40.60;19.63;;;-2.20;99.90;;;;;;4961917;28;20190;-95
2020/12/27 04:58:32;;;;;;;41.37;20.17;;;;;;;;;;4961764;28;20182;-96
2020/12/27 05:01:00;;;;;;;47.50;22.27;;;-2.20;99.90;;;;;;4960655;28;20182;-96
2020/12/27 05:03:26;;;;;;;48.70;21.30;;;;;;;;;;4977514;28;20206;-94
2020/12/27 05:05:53;;;;;;;44.23;20.43;;;-2.30;99.90;;;;;;4976426;28;20651;-94
2020/12/27 05:08:20;;;;;;;47.43;22.67;;;;;;;;;;4944350;28;20262;-95
2020/12/27 05:10:46;;;;;;;48.70;21.23;;;;;;;;;;4958798;28;20282;-95
2020/12/27 05:13:12;;;;;;;47.27;20.10;;;;;;;;;;4979724;28;20187;-96
2020/12/27 05:15:39;;;;;;;44.53;19.50;;;;;;;;;;4962388;28;20284;-92
2020/12/27 05:18:06;;;;;;;40.60;20.53;;;-2.40;99.90;;;;;;4962467;28;20182;-94
2020/12/27 05:20:36;;;;;;;46.13;20.43;;;-2.40;99.90;;;;;;4962213;28;20175;-95
2020/12/27 05:23:03;;;;;;;45.17;20.57;;;-2.40;99.90;;;;;;4959196;28;20272;-95
2020/12/27 05:25:30;;;;;;;43.73;22.47;;;-2.40;99.90;;;;;;4960143;28;20188;-95
2020/12/27 05:28:01;;;;;;;48.20;23.80;;;-2.40;99.90;;;;;;4959075;28;20176;-92
2020/12/27 05:30:28;;;;;;;51.83;24.13;;;-2.40;99.90;;;;;;4986806;28;20184;-91
2020/12/27 05:32:54;;;;;;;49.50;22.33;;;;;;;;;;4957425;28;20187;-91
2020/12/27 05:35:20;;;;;;;54.17;24.47;;;;;;;;;;4960162;28;20238;-94
2020/12/27 05:37:47;;;;;;;48.37;22.60;;;-2.40;99.90;;;;;;4956169;29;20178;-94
2020/12/27 05:40:14;;;;;;;49.17;23.50;;;;;;;;;;4957303;29;20177;-95
2020/12/27 05:42:40;;;;;;;46.83;22.30;;;;;;;;;;4963882;29;20183;-94
2020/12/27 05:45:17;;;;;;;52.50;23.90;;;-2.30;99.90;;;;;;4973547;28;20202;-92
2020/12/27 05:47:45;;;;;;;52.90;23.03;;;-2.40;99.90;;;;;;4961049;28;20199;-92
2020/12/27 05:50:14;;;;;;;54.13;25.47;;;-2.40;99.90;;;;;;4975900;28;20188;-94
2020/12/27 05:52:48;;;;;;;53.33;24.50;;;0.80;99.90;;;;;;4955480;29;20210;-93
2020/12/27 05:55:21;;;;;;;54.07;25.27;;;-2.50;99.90;;;;;;4956082;29;20236;-95
2020/12/27 05:57:52;;;;;;;58.70;27.20;;;-2.40;99.90;;;;;;4955794;29;20195;-93
2020/12/27 06:00:23;;;;;;;68.80;29.80;;;0.70;99.90;;;;;;4956198;29;20225;-93
2020/12/27 06:02:59;;;;;;;58.07;27.47;;;-1.20;99.90;;;;;;4955295;29;20195;-94
2020/12/27 06:05:54;;;;;;;60.43;29.53;;;-2.40;99.90;;;;;;4955708;29;20183;-95
2020/12/27 06:08:29;;;;;;;65.13;27.97;;;-2.40;99.90;;;;;;4955005;29;20227;-95
2020/12/27 06:11:00;;;;;;;69.63;32.20;;;-2.40;99.90;;;;;;4956846;29;20182;-93
2020/12/27 06:13:26;;;;;;;59.00;29.43;;;;;;;;;;4955056;29;20273;-92
2020/12/27 06:15:59;;;;;;;62.50;29.20;;;-2.40;99.90;;;;;;4954451;29;20183;-94
2020/12/27 06:18:29;;;;;;;67.70;31.17;;;0.50;99.90;;;;;;4959961;29;20183;-93
2020/12/27 06:21:10;;;;;;;68.17;33.47;;;0.30;99.90;;;;;;4963665;29;20188;-92
2020/12/27 06:23:36;;;;;;;70.80;32.97;;;;;;;;;;4957754;29;20209;-93
2020/12/27 06:26:04;;;;;;;65.10;29.17;;;-2.50;99.90;;;;;;4957365;29;20195;-94
2020/12/27 06:28:31;;;;;;;60.40;28.20;;;-2.50;99.90;;;;;;4959394;29;20209;-94
2020/12/27 06:31:02;;;;;;;59.53;27.83;;;-2.50;99.90;;;;;;4960020;29;20194;-96
2020/12/27 06:33:35;;;;;;;59.23;28.53;;;-1.80;99.90;;;;;;4968927;29;20169;-94
2020/12/27 06:36:02;;;;;;;65.63;28.37;;;;;;;;;;4958854;28;20234;-94
2020/12/27 06:38:32;;;;;;;63.00;28.87;;;-2.50;99.90;;;;;;4959817;29;20186;-95
2020/12/27 06:41:11;;;;;;;50.47;26.07;;;-2.70;99.90;;;;;;4961846;29;20636;-95
2020/12/27 06:43:44;;;;;;;59.90;27.07;;;-2.50;99.90;;;;;;4962477;29;20692;-96
2020/12/27 06:46:28;;;;;;;63.23;29.13;;;-2.60;99.90;;;;;;4964766;28;20189;-95
2020/12/27 06:49:10;;;;;;;61.67;27.93;;;-2.50;99.90;;;;;;4981897;28;20232;-94
2020/12/27 06:51:41;;;;;;;54.83;27.03;;;-2.50;99.90;;;;;;4963358;28;20184;-96
2020/12/27 06:54:07;;;;;;;55.83;26.70;;;;;;;;;;4964055;28;20181;-95
2020/12/27 06:56:52;;;;;;;57.63;27.83;;;-2.40;99.90;;;;;;4964907;28;20273;-94
2020/12/27 06:59:23;;;;;;;50.63;26.67;;;-2.40;99.90;;;;;;4977430;28;20185;-96
2020/12/27 07:02:05;;;;;;;98.37;36.63;;;-2.40;99.90;;;;;;4939922;29;20198;-92
2020/12/27 07:04:37;;;;;;;186.93;58.50;;;-2.30;99.90;;;;;;4942422;29;20537;-92
2020/12/27 07:07:03;;;;;;;118.37;50.17;;;;;;;;;;4939355;29;20629;-93
2020/12/27 07:09:31;;;;;;;106.30;46.00;;;;;;;;;;4938815;29;20296;-95
2020/12/27 07:12:18;;;;;;;123.00;50.50;;;-2.30;99.90;;;;;;4939886;29;20192;-94
2020/12/27 07:14:44;;;;;;;114.67;49.10;;;;;;;;;;4954782;29;20184;-95
2020/12/27 07:17:14;;;;;;;99.03;42.57;;;-2.20;99.90;;;;;;4945083;29;20647;-96
2020/12/27 07:19:41;;;;;;;62.90;32.90;;;;;;;;;;4946284;29;20194;-95
2020/12/27 07:22:11;;;;;;;85.97;35.63;;;-2.10;99.90;;;;;;4942979;29;20194;-96
2020/12/27 07:24:39;;;;;;;98.97;45.47;;;-2.10;99.90;;;;;;4941123;29;20211;-96
2020/12/27 07:27:07;;;;;;;131.27;54.30;;;-2.00;99.90;;;;;;4943076;29;20180;-96
2020/12/27 07:29:46;;;;;;;119.23;50.80;;;-1.90;99.90;;;;;;4940323;29;20231;-93
2020/12/27 07:32:45;;;;;;;76.57;35.23;;;-1.90;99.90;;;;;;4939328;29;20187;-96
2020/12/27 07:35:11;;;;;;;74.10;32.80;;;;;;;;;;4950029;28;20236;-94
2020/12/27 07:37:43;;;;;;;82.93;37.37;;;-1.80;99.90;;;;;;4958529;29;20199;-94
2020/12/27 07:40:12;;;;;;;66.57;30.10;;;-1.80;99.90;;;;;;4958235;29;20198;-93
2020/12/27 07:42:39;;;;;;;72.77;31.27;;;-1.70;99.90;;;;;;4960774;29;20344;-95
2020/12/27 07:45:14;;;;;;;72.23;29.80;;;-1.70;99.90;;;;;;4956828;28;20272;-93
2020/12/27 07:47:43;;;;;;;62.73;27.97;;;-1.70;99.90;;;;;;4947139;28;20204;-93
2020/12/27 07:50:14;;;;;;;63.10;29.13;;;-1.60;99.90;;;;;;4987224;28;20205;-93
2020/12/27 07:53:00;;;;;;;56.23;25.60;;;-1.60;99.90;;;;;;4991187;28;20176;-94
2020/12/27 07:55:38;;;;;;;51.60;24.27;;;-1.50;99.90;;;;;;4987364;28;20623;-95
2020/12/27 07:58:06;;;;;;;49.30;22.33;;;-1.40;99.90;;;;;;4997316;28;20241;-94
2020/12/27 08:00:36;;;;;;;64.40;26.30;;;-1.40;99.90;;;;;;4995332;28;20314;-95
2020/12/27 08:03:10;;;;;;;64.43;27.37;;;-1.30;99.90;;;;;;4986906;28;20661;-96
2020/12/27 08:05:37;;;;;;;79.47;32.30;;;-1.20;99.90;;;;;;4995522;28;20175;-96
2020/12/27 08:08:08;;;;;;;72.30;27.73;;;-1.20;99.90;;;;;;4981121;28;20275;-96
2020/12/27 08:10:37;;;;;;;60.13;25.97;;;-1.10;99.90;;;;;;4996858;28;20181;-94
2020/12/27 08:13:06;;;;;;;67.90;29.30;;;-1.00;99.90;;;;;;4997890;28;20195;-93
2020/12/27 08:15:39;;;;;;;88.63;34.43;;;-1.00;99.90;;;;;;4979574;28;20274;-95
2020/12/27 08:18:10;;;;;;;84.60;32.43;;;-1.00;99.90;;;;;;4981382;28;20183;-96
2020/12/27 08:20:52;;;;;;;61.37;25.87;;;-0.90;99.90;;;;;;4983315;28;20187;-95
2020/12/27 08:23:19;;;;;;;61.40;24.83;;;-0.90;99.90;;;;;;5000096;28;20175;-94
2020/12/27 08:25:56;;;;;;;67.00;28.07;;;-0.80;99.90;;;;;;4961750;28;20203;-94
2020/12/27 08:28:22;;;;;;;57.10;22.87;;;;;;;;;;4961638;28;20235;-94
2020/12/27 08:30:48;;;;;;;52.00;21.20;;;;;;;;;;4978951;28;20183;-95
2020/12/27 08:33:15;;;;;;;58.83;22.00;;;-0.70;99.90;;;;;;4944239;28;20210;-94
2020/12/27 08:35:47;;;;;;;64.17;25.57;;;-0.60;99.90;;;;;;4962526;28;20252;-93
2020/12/27 08:38:17;;;;;;;71.70;28.50;;;-0.60;99.90;;;;;;4980644;28;20187;-94
2020/12/27 08:40:46;;;;;;;58.00;23.37;;;-0.50;99.90;;;;;;4970501;28;20186;-94
2020/12/27 08:43:42;;;;;;;54.83;22.47;;;-0.50;99.90;;;;;;4968600;28;20225;-94
2020/12/27 08:46:10;;;;;;;61.77;23.00;;;-0.40;99.90;;;;;;4977174;28;20187;-94
2020/12/27 08:48:43;;;;;;;50.03;19.33;;;-0.40;99.90;;;;;;4985503;28;20367;-87
2020/12/27 08:51:13;;;;;;;45.80;19.93;;;-0.40;99.90;;;;;;4975200;28;20208;-90
2020/12/27 08:53:46;;;;;;;42.10;18.60;;;-0.10;99.90;;;;;;4975237;28;20187;-91
2020/12/27 08:56:12;;;;;;;47.80;19.07;;;;;;;;;;4975983;28;20196;-91
2020/12/27 08:58:38;;;;;;;35.20;14.97;;;;;;;;;;4962217;28;20173;-93
2020/12/27 09:01:21;;;;;;;33.30;15.27;;;-0.20;99.90;;;;;;4989972;28;20211;-91
2020/12/27 09:03:50;;;;;;;29.20;15.50;;;;;;;;;;4999804;28;20186;-87
2020/12/27 09:06:16;;;;;;;38.97;15.40;;;-0.10;99.90;;;;;;4983619;28;20188;-87
2020/12/27 09:08:43;;;;;;;46.07;18.90;;;;;;;;;;4982488;28;20300;-89
2020/12/27 09:11:09;;;;;;;37.20;17.37;;;;;;;;;;4947543;28;20194;-91
2020/12/27 09:13:40;;;;;;;33.03;15.27;;;-0.10;99.90;;;;;;4987059;28;20210;-93
2020/12/27 09:16:06;;;;;;;34.07;15.03;;;;;;;;;;5002271;28;20197;-92
2020/12/27 09:18:34;;;;;;;31.20;16.17;;;0.00;99.90;;;;;;5009525;28;20170;-93
2020/12/27 09:21:07;;;;;;;36.07;15.30;;;0.10;99.90;;;;;;5013802;23;20245;-90
2020/12/27 09:23:33;;;;;;;38.57;16.87;;;;;;;;;;4981440;28;20259;-89
2020/12/27 09:26:10;;;;;;;34.80;15.77;;;0.10;99.90;;;;;;4969289;28;20188;-93
2020/12/27 09:28:37;;;;;;;36.00;15.70;;;0.20;99.90;;;;;;4975595;28;20288;-92
2020/12/27 09:31:11;;;;;;;39.77;15.60;;;0.20;99.90;;;;;;4990281;28;20185;-92
2020/12/27 09:33:47;;;;;;;32.30;14.50;;;0.30;99.90;;;;;;4975293;28;20211;-91
2020/12/27 09:36:13;;;;;;;26.10;12.63;;;;;;;;;;4990069;28;20258;-94
2020/12/27 09:38:42;;;;;;;32.27;12.47;;;0.40;99.90;;;;;;4986939;28;20240;-93
2020/12/27 09:41:14;;;;;;;27.67;12.97;;;0.40;99.90;;;;;;4960149;28;20254;-92
2020/12/27 09:43:59;;;;;;;28.20;13.20;;;2.80;99.90;;;;;;4966234;28;20218;-94
2020/12/27 09:46:52;;;;;;;31.97;13.47;;;2.80;99.90;;;;;;4971660;28;20180;-94
2020/12/27 09:49:29;;;;;;;22.73;12.10;;;0.40;99.90;;;;;;4991120;28;20216;-95
2020/12/27 09:52:01;;;;;;;30.93;13.77;;;0.40;99.90;;;;;;4990034;28;20236;-92
2020/12/27 09:54:38;;;;;;;31.37;14.30;;;0.50;99.90;;;;;;4992055;28;20281;-93
2020/12/27 09:57:13;;;;;;;30.90;12.83;;;3.30;99.90;;;;;;4975864;28;20192;-94
2020/12/27 09:59:40;;;;;;;33.10;15.67;;;0.60;99.90;;;;;;4990687;28;20206;-95
2020/12/27 10:02:07;;;;;;;31.83;14.37;;;;;;;;;;4989772;28;20725;-94
2020/12/27 10:04:34;;;;;;;28.23;13.40;;;;;;;;;;4990802;28;20186;-93
2020/12/27 10:07:01;;;;;;;29.60;12.90;;;;;;;;;;4975862;28;20184;-92
2020/12/27 10:09:27;;;;;;;23.47;12.60;;;;;;;;;;4988187;28;20224;-93
2020/12/27 10:11:53;;;;;;;27.73;12.53;;;;;;;;;;4989757;28;20184;-93
2020/12/27 10:14:18;;;;;;;28.67;13.33;;;0.90;99.90;;;;;;4989309;28;20783;-95
2020/12/27 10:16:44;;;;;;;29.10;14.57;;;0.90;99.90;;;;;;4983385;28;20224;-95
2020/12/27 10:19:10;;;;;;;28.17;12.90;;;2.80;99.90;;;;;;4976435;28;20206;-92
2020/12/27 10:21:36;;;;;;;23.47;12.73;;;;;;;;;;4995138;28;20237;-95
2020/12/27 10:24:13;;;;;;;31.47;14.40;;;1.40;99.90;;;;;;5076920;23;20241;-93
2020/12/27 10:26:39;;;;;;;45.87;18.60;;;;;;;;;;5036100;23;20238;-95
2020/12/27 10:29:07;;;;;;;39.07;17.70;;;;;;;;;;4974788;28;20252;-94
2020/12/27 10:31:35;;;;;;;42.07;16.80;;;;;;;;;;4965540;28;20202;-95
2020/12/27 10:36:47;;;;;;;25.23;12.23;;;1.40;99.90;;;;;;4848586;26;20331;-95
2020/12/27 10:44:25;;;;;;;21.07;9.87;;;1.40;99.90;;;;;;5024073;23;20266;-93
2020/12/27 10:46:51;;;;;;;39.77;13.27;;;;;;;;;;4986627;28;20207;-94
2020/12/27 10:49:22;;;;;;;21.27;10.30;;;1.30;99.90;;;;;;5003559;28;20217;-96
2020/12/27 10:54:24;;;;;;;32.10;13.37;;;;;;;;;;5411989;23;20704;-96
2020/12/27 10:56:50;;;;;;;23.83;11.23;;;1.30;99.90;;;;;;5350824;23;20757;-96
2020/12/27 10:59:17;;;;;;;24.43;10.47;;;;;;;;;;5025937;28;20196;-95
2020/12/27 11:01:46;;;;;;;30.57;11.73;;;1.40;99.90;;;;;;5017652;28;20193;-95
2020/12/27 11:04:13;;;;;;;20.90;10.00;;;;;;;;;;5051838;23;20254;-95
2020/12/27 11:06:39;;;;;;;27.20;12.00;;;;;;;;;;5003800;28;20213;-95
2020/12/27 11:09:05;;;;;;;17.13;7.37;;;;;;;;;;4997853;28;20205;-94
2020/12/27 11:11:31;;;;;;;22.33;9.97;;;;;;;;;;4981435;28;20198;-94
2020/12/27 11:13:57;;;;;;;25.90;10.07;;;;;;;;;;4996073;28;20185;-95
2020/12/27 11:16:23;;;;;;;19.77;8.67;;;;;;;;;;4996630;28;20269;-95
2020/12/27 11:18:49;;;;;;;19.63;9.00;;;;;;;;;;4996238;28;20182;-95
2020/12/27 11:21:18;;;;;;;15.80;8.10;;;;;;;;;;5495268;23;20239;-96
2020/12/27 11:23:44;;;;;;;11.97;7.50;;;;;;;;;;4990176;28;20257;-95
2020/12/27 11:26:10;;;;;;;17.20;8.27;;;;;;;;;;5177722;23;20249;-95
2020/12/27 11:28:36;;;;;;;17.97;8.30;;;;;;;;;;4999479;28;20232;-92
2020/12/27 11:31:02;;;;;;;13.03;6.63;;;;;;;;;;4988020;28;20177;-93
2020/12/27 11:33:28;;;;;;;14.00;6.03;;;;;;;;;;4985975;28;20200;-94
2020/12/27 11:35:54;;;;;;;10.30;5.43;;;;;;;;;;4981538;28;20691;-94
2020/12/27 11:38:20;;;;;;;19.33;8.40;;;1.80;99.90;;;;;;4978045;28;20281;-92
2020/12/27 11:40:46;;;;;;;12.60;6.87;;;;;;;;;;4978466;28;20217;-93
2020/12/27 11:43:12;;;;;;;21.73;9.80;;;;;;;;;;4976340;28;20600;-89
2020/12/27 11:45:38;;;;;;;20.30;9.80;;;2.00;99.90;;;;;;4975836;28;20186;-90
2020/12/27 11:48:03;;;;;;;18.77;8.37;;;2.00;99.90;;;;;;4979495;28;20525;-93
2020/12/27 11:50:29;;;;;;;23.77;10.33;;;2.90;99.90;;;;;;4977286;28;20211;-95
2020/12/27 11:52:54;;;;;;;20.00;10.30;;;2.30;99.90;;;;;;4960588;28;20343;-94
2020/12/27 11:55:20;;;;;;;13.97;6.80;;;4.00;99.90;;;;;;4977214;28;20658;-93
2020/12/27 11:57:48;;;;;;;18.00;7.70;;;3.30;99.90;;;;;;4927970;28;20186;-93
2020/12/27 12:00:14;;;;;;;18.70;8.43;;;;;;;;;;4976750;28;20191;-92
2020/12/27 12:02:40;;;;;;;19.67;9.37;;;4.30;95.20;;;;;;4959376;28;20184;-93
2020/12/27 12:05:06;;;;;;;27.07;11.40;;;5.60;96.20;;;;;;4959324;28;20183;-93
2020/12/27 12:07:31;;;;;;;23.47;7.50;;;4.50;94.00;;;;;;4961238;28;20215;-94
2020/12/27 12:09:57;;;;;;;18.57;8.17;;;4.30;92.80;;;;;;4968169;28;20214;-94
2020/12/27 12:12:23;;;;;;;17.83;8.50;;;4.10;92.30;;;;;;4969346;28;20218;-95
2020/12/27 12:14:48;;;;;;;22.67;10.53;;;4.40;93.00;;;;;;4945111;28;20186;-93
2020/12/27 12:17:14;;;;;;;17.47;8.60;;;3.60;93.70;;;;;;4929005;28;20674;-95
2020/12/27 12:19:40;;;;;;;15.57;8.17;;;;;;;;;;4982193;28;20707;-95
2020/12/27 12:22:06;;;;;;;15.47;7.47;;;;;;;;;;5057212;23;20256;-91
2020/12/27 12:24:32;;;;;;;23.23;10.13;;;;;;;;;;5089817;23;20306;-90
2020/12/27 12:26:58;;;;;;;24.33;11.43;;;;;;;;;;4977138;28;20241;-93
2020/12/27 12:29:24;;;;;;;37.33;18.17;;;;;;;;;;4966682;28;20262;-94
2020/12/27 12:31:50;;;;;;;26.17;11.80;;;3.90;98.00;;;;;;4977662;28;20273;-96
2020/12/27 12:34:15;;;;;;;52.37;22.67;;;4.50;95.80;;;;;;4980272;28;20259;-96
2020/12/27 12:36:41;;;;;;;27.47;13.17;;;4.80;91.80;;;;;;4960121;28;20215;-93
2020/12/27 12:39:08;;;;;;;31.40;16.17;;;5.00;90.40;;;;;;4932853;28;20193;-96
2020/12/27 12:41:34;;;;;;;30.83;13.33;;;;;;;;;;4962799;28;20272;-94
2020/12/27 12:44:00;;;;;;;40.77;14.63;;;5.50;84.90;;;;;;4958797;28;20186;-93
2020/12/27 12:46:26;;;;;;;29.93;13.23;;;5.30;84.60;;;;;;4958121;28;20241;-94
2020/12/27 12:48:54;;;;;;;26.37;12.03;;;5.30;86.80;;;;;;4941763;29;20214;-92
2020/12/27 12:51:32;;;;;;;34.97;12.30;;;5.40;88.20;;;;;;4958431;28;20189;-95
2020/12/27 12:53:58;;;;;;;29.23;11.10;;;;;;;;;;4957133;28;20166;-88
2020/12/27 12:56:24;;;;;;;21.63;9.80;;;4.70;89.30;;;;;;4956547;28;20187;-95
2020/12/27 12:58:50;;;;;;;20.30;9.20;;;;;;;;;;4957466;28;20194;-93
2020/12/27 13:01:16;;;;;;;30.33;11.07;;;4.00;88.70;;;;;;4956428;28;20183;-91
2020/12/27 13:03:42;;;;;;;44.70;15.33;;;5.10;93.20;;;;;;4981139;28;20279;-95
2020/12/27 13:06:09;;;;;;;29.80;11.87;;;2.80;94.60;;;;;;4956613;28;20276;-92
2020/12/27 13:08:35;;;;;;;50.77;18.17;;;;;;;;;;4958870;28;20226;-91
2020/12/27 13:11:01;;;;;;;46.37;17.97;;;2.40;99.90;;;;;;4976072;28;20757;-94
2020/12/27 13:13:27;;;;;;;70.10;23.57;;;2.30;99.90;;;;;;4975239;28;20229;-88
2020/12/27 13:15:52;;;;;;;56.43;21.17;;;2.60;99.90;;;;;;4973945;28;20628;-94
2020/12/27 13:18:18;;;;;;;34.07;13.63;;;2.10;99.90;;;;;;4977044;28;20241;-93
2020/12/27 13:20:43;;;;;;;47.00;18.03;;;2.00;99.90;;;;;;4973852;28;20190;-94
2020/12/27 13:23:09;;;;;;;45.67;20.87;;;2.30;99.90;;;;;;4967529;28;20518;-90
2020/12/27 13:25:35;;;;;;;39.47;14.37;;;2.30;99.90;;;;;;4973281;28;20735;-95